Terminal Aerodrome Forecast
Issued by NWS

Home | Current Version | Previous Version | Text Only | Print | Product List | Glossary On
Versions: 1 2 3 4 5 6 7 8 9 10 11 12 13 14 15 16 17 18 19 20 21 22 23
798
FTUS41 KPBZ 290133 AAA
TAFBVI
TAF AMD
KBVI 290133Z 2902/2924 03005KT 2SM BR OVC003
     FM291400 32005KT 5SM BR OVC008
     FM291800 30005KT P6SM BKN015
      AMD NOT SKED 2902/2912=

USA.gov is the U.S. government's official web portal to all federal, state and local government web resources and services.